createdAt,value
2022-11-07T00:01:15.255Z,50.95
2022-11-07T00:03:41.897Z,54.83
2022-11-07T00:06:08.614Z,49.42
2022-11-07T00:08:35.383Z,52.88
2022-11-07T00:11:02.880Z,49.97
2022-11-07T00:13:29.736Z,54.22
2022-11-07T00:16:01.175Z,49.60
2022-11-07T00:18:28.124Z,55.67
2022-11-07T00:20:54.889Z,54.67
2022-11-07T00:23:21.636Z,56.92
2022-11-07T00:25:48.236Z,52.70
2022-11-07T00:28:14.924Z,51.35
2022-11-07T00:30:41.617Z,54.65
2022-11-07T00:33:08.352Z,55.47
2022-11-07T00:35:35.061Z,62.15
2022-11-07T00:38:01.626Z,49.95
2022-11-07T00:40:28.277Z,52.20
2022-11-07T00:42:54.849Z,51.90
2022-11-07T00:45:21.520Z,59.35
2022-11-07T00:47:48.215Z,59.55
2022-11-07T00:50:14.826Z,57.58
2022-11-07T00:52:41.456Z,53.25
2022-11-07T00:55:08.177Z,54.80
2022-11-07T00:57:34.790Z,54.10
2022-11-07T01:00:01.428Z,53.40
2022-11-07T01:02:28.248Z,59.65
2022-11-07T01:05:13.317Z,54.22
2022-11-07T01:07:40.194Z,54.97
2022-11-07T01:10:08.060Z,54.20
2022-11-07T01:12:35.848Z,54.63
2022-11-07T01:15:04.024Z,62.45
2022-11-07T01:17:30.719Z,53.88
2022-11-07T01:19:57.505Z,59.92
2022-11-07T01:22:24.192Z,55.13
2022-11-07T01:24:50.848Z,70.60
2022-11-07T01:27:17.448Z,57.97
2022-11-07T01:29:44.160Z,63.75
2022-11-07T01:32:10.822Z,61.72
2022-11-07T01:34:37.501Z,59.53
2022-11-07T01:37:04.084Z,62.05
2022-11-07T01:39:30.677Z,58.72
2022-11-07T01:41:57.513Z,57.72
2022-11-07T01:44:24.025Z,55.63
2022-11-07T01:46:52.678Z,58.10
2022-11-07T01:49:22.232Z,58.03
2022-11-07T01:51:57.963Z,58.83
2022-11-07T01:54:29.530Z,55.38
2022-11-07T01:56:58.900Z,55.85
2022-11-07T01:59:30.774Z,57.95
2022-11-07T02:01:58.466Z,61.88
2022-11-07T02:04:27.570Z,55.10
2022-11-07T02:07:07.544Z,63.83
2022-11-07T02:09:34.621Z,65.57
2022-11-07T02:12:02.589Z,67.25
2022-11-07T02:14:29.767Z,71.40
2022-11-07T02:16:57.111Z,70.90
2022-11-07T02:19:41.520Z,67.30
2022-11-07T02:22:35.603Z,68.25
2022-11-07T02:25:06.407Z,68.88
2022-11-07T02:27:34.658Z,67.13
2022-11-07T02:30:06.027Z,70.97
2022-11-07T02:32:32.895Z,73.10
2022-11-07T02:35:05.440Z,81.30
2022-11-07T02:37:39.439Z,77.28
2022-11-07T02:40:09.602Z,75.35
2022-11-07T02:42:44.853Z,86.38
2022-11-07T02:45:19.786Z,71.13
2022-11-07T02:47:46.537Z,75.82
2022-11-07T02:50:15.819Z,76.63
2022-11-07T02:52:43.359Z,77.50
2022-11-07T02:55:11.489Z,95.03
2022-11-07T02:57:38.145Z,88.15
2022-11-07T03:00:07.081Z,72.03
2022-11-07T03:02:33.882Z,88.53
2022-11-07T03:05:00.768Z,74.07
2022-11-07T03:07:27.689Z,72.53
2022-11-07T03:09:54.326Z,78.28
2022-11-07T03:12:21.427Z,70.75
2022-11-07T03:14:48.075Z,80.93
2022-11-07T03:17:14.689Z,77.63
2022-11-07T03:19:41.886Z,85.47
2022-11-07T03:22:08.535Z,94.05
2022-11-07T03:24:35.143Z,85.88
2022-11-07T03:27:01.706Z,82.72
2022-11-07T03:29:28.371Z,88.30
2022-11-07T03:31:55.043Z,80.60
2022-11-07T03:34:21.814Z,80.50
2022-11-07T03:36:48.508Z,93.35
2022-11-07T03:39:15.166Z,87.07
2022-11-07T03:41:41.761Z,72.47
2022-11-07T03:44:08.458Z,73.75
2022-11-07T03:46:35.093Z,77.68
2022-11-07T03:49:01.921Z,81.45
2022-11-07T03:51:28.675Z,72.35
2022-11-07T03:53:55.244Z,77.45
2022-11-07T03:56:21.891Z,76.55
2022-11-07T03:58:48.587Z,63.95
2022-11-07T04:01:15.197Z,66.30
2022-11-07T04:03:41.920Z,73.05
2022-11-07T04:06:08.715Z,70.35
2022-11-07T04:08:35.872Z,69.38
2022-11-07T04:11:02.443Z,64.32
2022-11-07T04:13:47.552Z,54.67
2022-11-07T04:16:32.919Z,56.65
2022-11-07T04:19:01.572Z,56.78
2022-11-07T04:21:28.195Z,54.17
2022-11-07T04:23:54.778Z,62.60
2022-11-07T04:26:40.105Z,58.67
2022-11-07T04:29:06.659Z,56.78
2022-11-07T04:31:34.508Z,58.78
2022-11-07T04:34:01.146Z,54.78
2022-11-07T04:36:28.047Z,57.50
2022-11-07T04:38:54.713Z,68.55
2022-11-07T04:41:24.183Z,65.15
2022-11-07T04:43:51.285Z,67.15
2022-11-07T04:46:18.291Z,65.85
2022-11-07T04:48:45.103Z,67.93
2022-11-07T04:51:21.757Z,64.68
2022-11-07T04:53:48.824Z,68.13
2022-11-07T04:56:15.510Z,64.70
2022-11-07T04:58:42.374Z,80.13
2022-11-07T05:01:09.041Z,72.63
2022-11-07T05:03:41.265Z,72.55
2022-11-07T05:06:13.588Z,68.63
2022-11-07T05:08:40.321Z,63.55
2022-11-07T05:11:06.897Z,66.88
2022-11-07T05:13:33.611Z,60.55
2022-11-07T05:16:00.201Z,67.88
2022-11-07T05:18:26.882Z,73.38
2022-11-07T05:20:53.442Z,61.97
2022-11-07T05:23:20.635Z,67.78
2022-11-07T05:25:47.434Z,71.43
2022-11-07T05:28:17.460Z,68.35
2022-11-07T05:30:45.272Z,70.43
2022-11-07T05:33:15.104Z,67.38
2022-11-07T05:35:42.584Z,60.00
2022-11-07T05:38:10.142Z,66.95
2022-11-07T05:40:38.743Z,59.15
2022-11-07T05:43:10.906Z,62.50
2022-11-07T05:48:07.872Z,67.32
2022-11-07T05:50:34.535Z,83.68
2022-11-07T05:53:01.731Z,64.22
2022-11-07T05:55:28.923Z,71.70
2022-11-07T05:57:56.086Z,63.00
2022-11-07T06:00:22.941Z,54.80
2022-11-07T06:02:57.741Z,63.97
2022-11-07T06:05:24.682Z,73.63
2022-11-07T06:07:51.391Z,65.95
2022-11-07T06:10:18.787Z,59.80
2022-11-07T06:12:46.227Z,71.95
2022-11-07T06:15:12.913Z,65.80
2022-11-07T06:17:39.550Z,65.30
2022-11-07T06:20:06.930Z,90.00
2022-11-07T06:22:33.889Z,79.07
2022-11-07T06:25:01.397Z,72.18
2022-11-07T06:27:28.112Z,62.95
2022-11-07T06:29:54.900Z,67.80
2022-11-07T06:32:21.533Z,56.90
2022-11-07T06:34:48.542Z,60.15
2022-11-07T06:37:15.736Z,61.80
2022-11-07T06:39:42.588Z,58.42
2022-11-07T06:42:09.819Z,67.85
2022-11-07T06:44:37.075Z,59.95
2022-11-07T06:47:03.880Z,59.30
2022-11-07T06:49:31.019Z,59.88
2022-11-07T06:51:57.574Z,61.78
2022-11-07T06:54:24.189Z,66.45
2022-11-07T06:56:50.952Z,66.90
2022-11-07T06:59:17.667Z,63.20
2022-11-07T07:01:44.483Z,68.70
2022-11-07T07:04:11.609Z,65.57
2022-11-07T07:06:40.255Z,66.40
2022-11-07T07:09:07.132Z,63.72
2022-11-07T07:11:36.284Z,66.65
2022-11-07T07:14:04.700Z,49.78
2022-11-07T07:16:34.082Z,61.10
2022-11-07T07:19:00.721Z,56.50
2022-11-07T07:21:27.436Z,55.70
2022-11-07T07:23:54.166Z,56.88
2022-11-07T07:26:20.755Z,49.70
2022-11-07T07:28:49.090Z,52.22
2022-11-07T07:31:15.845Z,43.83
2022-11-07T07:33:43.624Z,40.42
2022-11-07T07:36:12.462Z,45.80
2022-11-07T07:38:41.897Z,42.38
2022-11-07T07:41:08.892Z,48.30
2022-11-07T07:43:35.751Z,45.50
2022-11-07T07:46:05.911Z,42.97
2022-11-07T07:48:33.230Z,40.63
2022-11-07T07:50:59.803Z,46.28
2022-11-07T07:53:26.426Z,47.45
2022-11-07T07:55:58.087Z,45.70
2022-11-07T07:58:27.021Z,48.72
2022-11-07T08:00:58.219Z,43.97
2022-11-07T08:03:29.335Z,51.72
2022-11-07T08:06:02.213Z,49.72
2022-11-07T08:08:31.491Z,44.13
2022-11-07T08:11:07.848Z,48.40
2022-11-07T08:13:34.559Z,48.60
2022-11-07T08:16:04.752Z,50.10
2022-11-07T08:18:31.373Z,68.35
2022-11-07T08:20:58.307Z,56.83
2022-11-07T08:23:25.266Z,53.88
2022-11-07T08:25:56.620Z,57.60
2022-11-07T08:28:26.012Z,67.40
2022-11-07T08:31:01.404Z,59.10
2022-11-07T08:33:28.921Z,39.33
2022-11-07T08:35:57.440Z,52.05
2022-11-07T08:38:24.516Z,37.58
2022-11-07T08:40:51.642Z,49.30
2022-11-07T08:43:19.098Z,49.47
2022-11-07T08:45:48.248Z,42.17
2022-11-07T08:48:17.048Z,46.97
2022-11-07T08:50:43.863Z,46.67
2022-11-07T08:53:18.206Z,38.83
2022-11-07T08:55:45.434Z,39.55
2022-11-07T08:58:12.146Z,36.60
2022-11-07T09:00:38.798Z,36.58
2022-11-07T09:03:44.143Z,45.65
2022-11-07T09:05:57.427Z,36.03
2022-11-07T09:08:24.033Z,40.50
2022-11-07T09:10:51.251Z,35.30
2022-11-07T09:13:19.214Z,40.72
2022-11-07T09:15:50.629Z,33.03
2022-11-07T09:18:19.283Z,43.45
2022-11-07T09:20:45.868Z,39.47
2022-11-07T09:23:13.550Z,32.40
2022-11-07T09:25:40.353Z,38.00
2022-11-07T09:28:07.025Z,38.08
2022-11-07T09:30:33.880Z,33.25
2022-11-07T09:33:00.878Z,37.38
2022-11-07T09:35:27.922Z,36.70
2022-11-07T09:37:54.543Z,40.08
2022-11-07T09:40:40.912Z,28.83
2022-11-07T09:43:25.728Z,34.95
2022-11-07T09:46:01.393Z,31.23
2022-11-07T09:48:38.627Z,16.58
2022-11-07T09:51:06.153Z,23.50
2022-11-07T09:53:42.594Z,29.33
2022-11-07T09:56:12.732Z,22.85
2022-11-07T09:58:52.514Z,19.35
2022-11-07T10:01:21.539Z,20.13
2022-11-07T10:04:22.510Z,26.75
2022-11-07T10:06:49.413Z,28.17
2022-11-07T10:09:40.359Z,31.55
2022-11-07T10:12:43.252Z,20.45
2022-11-07T10:15:17.152Z,27.00
2022-11-07T10:17:59.157Z,37.53
2022-11-07T10:20:34.714Z,20.40
2022-11-07T10:23:17.795Z,26.95
2022-11-07T10:26:10.400Z,26.98
2022-11-07T10:31:15.540Z,26.15
2022-11-07T10:33:51.462Z,28.35
2022-11-07T10:36:21.739Z,27.77
2022-11-07T10:38:49.008Z,26.67
2022-11-07T10:41:19.730Z,31.70
2022-11-07T10:43:53.825Z,30.50
2022-11-07T10:46:25.551Z,23.33
2022-11-07T10:48:57.395Z,31.92
2022-11-07T10:51:38.850Z,28.92
2022-11-07T10:54:06.716Z,23.27
2022-11-07T10:56:48.883Z,26.38
2022-11-07T10:59:25.432Z,24.25
2022-11-07T11:01:55.275Z,23.35
2022-11-07T11:04:24.242Z,21.15
2022-11-07T11:07:03.366Z,18.45
2022-11-07T11:09:34.690Z,24.65
2022-11-07T11:12:13.807Z,22.27
2022-11-07T11:14:40.654Z,29.80
2022-11-07T11:17:28.619Z,26.80
2022-11-07T11:19:55.351Z,24.58
2022-11-07T11:22:25.013Z,23.35
2022-11-07T11:25:03.863Z,21.65
2022-11-07T11:27:34.907Z,21.33
2022-11-07T11:30:21.666Z,25.80
2022-11-07T11:32:48.491Z,27.10
2022-11-07T11:35:42.001Z,24.27
2022-11-07T11:38:18.165Z,21.00
2022-11-07T11:40:53.356Z,22.83
2022-11-07T11:43:26.878Z,24.10
2022-11-07T11:46:15.767Z,22.10
2022-11-07T11:48:51.968Z,24.48
2022-11-07T11:51:33.463Z,26.67
2022-11-07T11:54:01.655Z,27.33
2022-11-07T11:56:50.010Z,20.63
2022-11-07T11:59:20.157Z,25.20
2022-11-07T12:02:14.777Z,25.15
2022-11-07T12:05:09.084Z,20.63
2022-11-07T12:08:04.218Z,28.67
2022-11-07T12:11:02.172Z,33.53
2022-11-07T12:13:34.675Z,25.42
2022-11-07T12:16:20.604Z,25.50
2022-11-07T12:18:47.182Z,28.88
2022-11-07T12:21:22.083Z,20.98
2022-11-07T12:24:27.498Z,21.45
2022-11-07T12:27:02.091Z,24.02
2022-11-07T12:29:53.624Z,22.48
2022-11-07T12:32:51.066Z,37.30
2022-11-07T12:35:35.846Z,19.80
2022-11-07T12:38:14.618Z,29.45
2022-11-07T12:41:12.972Z,29.08
2022-11-07T12:44:09.869Z,21.27
2022-11-07T12:46:51.980Z,25.73
2022-11-07T12:49:47.484Z,25.35
2022-11-07T12:52:43.760Z,21.88
2022-11-07T12:55:40.148Z,29.77
2022-11-07T12:58:18.341Z,27.05
2022-11-07T13:00:46.342Z,25.60
2022-11-07T13:03:46.899Z,28.75
2022-11-07T13:06:35.149Z,30.40
2022-11-07T13:09:23.045Z,23.98
2022-11-07T13:11:59.253Z,21.33
2022-11-07T13:14:31.241Z,22.77
2022-11-07T13:19:40.534Z,23.95
2022-11-07T13:22:16.338Z,25.25
2022-11-07T13:24:52.252Z,21.10
2022-11-07T13:27:24.888Z,23.30
2022-11-07T13:29:52.272Z,21.60
2022-11-07T13:32:19.227Z,25.55
2022-11-07T13:34:48.683Z,22.27
2022-11-07T13:37:25.561Z,23.65
2022-11-07T13:39:59.241Z,31.55
2022-11-07T13:42:28.413Z,28.92
2022-11-07T13:45:01.015Z,26.17
2022-11-07T13:47:41.323Z,27.95
2022-11-07T13:50:19.755Z,23.17
2022-11-07T13:53:02.175Z,29.50
2022-11-07T13:55:41.128Z,25.88
2022-11-07T13:58:13.042Z,22.42
2022-11-07T14:00:39.668Z,23.23
2022-11-07T14:03:06.717Z,24.33
2022-11-07T14:05:38.148Z,22.17
2022-11-07T14:08:20.125Z,27.88
2022-11-07T14:10:49.745Z,29.65
2022-11-07T14:13:40.633Z,31.30
2022-11-07T14:16:21.503Z,30.20
2022-11-07T14:19:13.004Z,29.23
2022-11-07T14:21:39.582Z,31.00
2022-11-07T14:24:23.210Z,24.80
2022-11-07T14:27:00.489Z,24.08
2022-11-07T14:29:27.237Z,28.00
2022-11-07T14:31:59.567Z,24.88
2022-11-07T14:34:26.965Z,28.05
2022-11-07T14:36:59.878Z,38.55
2022-11-07T14:39:32.581Z,24.45
2022-11-07T14:42:02.933Z,26.20
2022-11-07T14:44:53.736Z,32.70
2022-11-07T14:47:28.348Z,28.40
2022-11-07T14:49:56.221Z,25.42
2022-11-07T14:52:32.785Z,27.92
2022-11-07T14:55:17.913Z,54.20
2022-11-07T14:57:45.356Z,115.85
2022-11-07T15:00:15.976Z,42.80
2022-11-07T15:02:42.923Z,47.15
2022-11-07T15:05:29.038Z,43.78
2022-11-07T15:07:57.713Z,43.72
2022-11-07T15:10:39.904Z,39.10
2022-11-07T15:16:06.294Z,59.55
2022-11-07T15:18:39.797Z,108.60
2022-11-07T15:21:07.154Z,86.78
2022-11-07T15:23:35.296Z,95.55
2022-11-07T15:26:08.172Z,67.25
2022-11-07T15:28:52.648Z,71.40
2022-11-07T15:31:26.046Z,63.55
2022-11-07T15:33:54.190Z,51.42
2022-11-07T15:36:21.359Z,51.15
2022-11-07T15:38:49.672Z,45.17
2022-11-07T15:41:17.071Z,54.60
2022-11-07T15:43:43.907Z,54.67
2022-11-07T15:46:34.447Z,59.33
2022-11-07T15:49:02.636Z,55.15
2022-11-07T15:51:30.776Z,51.50
2022-11-07T15:53:57.575Z,53.05
2022-11-07T15:56:26.097Z,44.30
2022-11-07T15:58:54.091Z,49.95
2022-11-07T16:01:20.856Z,52.10
2022-11-07T16:03:47.551Z,55.22
2022-11-07T16:06:30.639Z,65.55
2022-11-07T16:08:58.060Z,57.33
2022-11-07T16:11:24.718Z,56.00
2022-11-07T16:13:59.361Z,53.70
2022-11-07T16:16:35.860Z,52.58
2022-11-07T16:19:02.536Z,58.75
2022-11-07T16:21:29.149Z,56.83
2022-11-07T16:23:55.860Z,55.72
2022-11-07T16:26:30.052Z,53.42
2022-11-07T16:28:56.943Z,48.08
2022-11-07T16:31:23.861Z,50.25
2022-11-07T16:33:50.703Z,50.20
2022-11-07T16:36:21.980Z,57.42
2022-11-07T16:38:48.840Z,52.97
2022-11-07T16:41:15.628Z,56.08
2022-11-07T16:43:43.279Z,48.17
2022-11-07T16:46:18.386Z,62.10
2022-11-07T16:48:47.118Z,62.85
2022-11-07T16:51:16.200Z,53.38
2022-11-07T16:53:43.909Z,50.90
2022-11-07T16:56:32.200Z,49.13
2022-11-07T16:58:59.610Z,53.45
2022-11-07T17:01:27.830Z,59.90
2022-11-07T17:03:54.970Z,64.75
2022-11-07T17:06:33.302Z,55.13
2022-11-07T17:09:08.648Z,52.53
2022-11-07T17:11:37.800Z,55.38
2022-11-07T17:14:04.505Z,55.58
2022-11-07T17:16:35.661Z,60.53
2022-11-07T17:19:02.942Z,64.25
2022-11-07T17:21:40.168Z,79.65
2022-11-07T17:24:07.437Z,72.28
2022-11-07T17:26:37.751Z,79.20
2022-11-07T17:29:12.065Z,64.45
2022-11-07T17:31:38.750Z,59.28
2022-11-07T17:34:05.535Z,57.15
2022-11-07T17:36:37.770Z,58.22
2022-11-07T17:39:12.204Z,60.10
2022-11-07T17:41:40.583Z,56.85
2022-11-07T17:44:07.939Z,58.50
2022-11-07T17:46:36.970Z,61.80
2022-11-07T17:49:09.159Z,61.88
2022-11-07T17:51:36.193Z,49.75
2022-11-07T17:54:04.406Z,49.50
2022-11-07T17:56:31.892Z,50.88
2022-11-07T17:59:07.497Z,52.30
2022-11-07T18:01:37.064Z,48.83
2022-11-07T18:04:05.714Z,54.15
2022-11-07T18:06:37.633Z,70.40
2022-11-07T18:09:06.817Z,52.25
2022-11-07T18:11:34.244Z,50.08
2022-11-07T18:14:01.244Z,51.40
2022-11-07T18:16:31.925Z,57.17
2022-11-07T18:18:59.663Z,55.15
2022-11-07T18:21:27.224Z,52.88
2022-11-07T18:23:55.105Z,65.22
2022-11-07T18:26:30.548Z,53.78
2022-11-07T18:29:02.557Z,56.33
2022-11-07T18:31:35.468Z,56.80
2022-11-07T18:34:04.859Z,67.25
2022-11-07T18:36:35.469Z,64.45
2022-11-07T18:39:04.179Z,76.38
2022-11-07T18:41:30.940Z,69.18
2022-11-07T18:44:03.174Z,63.08
2022-11-07T18:46:31.477Z,79.20
2022-11-07T18:49:00.008Z,67.95
2022-11-07T18:51:27.312Z,63.40
2022-11-07T18:53:54.815Z,78.30
2022-11-07T18:56:25.871Z,81.40
2022-11-07T18:58:52.888Z,82.57
2022-11-07T19:01:27.516Z,91.28
2022-11-07T19:04:15.970Z,89.70
2022-11-07T19:07:04.957Z,85.15
2022-11-07T19:09:41.400Z,78.28
2022-11-07T19:12:08.170Z,69.82
2022-11-07T19:14:35.028Z,63.78
2022-11-07T19:17:01.853Z,72.95
2022-11-07T19:19:28.872Z,74.03
2022-11-07T19:21:55.569Z,70.50
2022-11-07T19:24:22.404Z,77.70
2022-11-07T19:26:49.070Z,78.22
2022-11-07T19:29:16.771Z,70.00
2022-11-07T19:31:44.120Z,76.03
2022-11-07T19:34:11.104Z,73.78
2022-11-07T19:36:37.901Z,73.00
2022-11-07T19:39:04.934Z,74.13
2022-11-07T19:41:31.647Z,78.55
2022-11-07T19:44:01.737Z,78.35
2022-11-07T19:46:28.766Z,76.00
2022-11-07T19:48:56.703Z,80.82
2022-11-07T19:51:23.524Z,72.40
2022-11-07T19:53:58.167Z,69.35
2022-11-07T19:56:29.091Z,72.30
2022-11-07T19:58:56.304Z,72.32
2022-11-07T20:01:26.678Z,83.07
2022-11-07T20:03:54.438Z,72.63
2022-11-07T20:06:32.220Z,71.15
2022-11-07T20:09:00.517Z,87.35
2022-11-07T20:11:27.709Z,91.68
2022-11-07T20:13:58.656Z,77.40
2022-11-07T20:16:28.578Z,69.80
2022-11-07T20:18:55.310Z,67.88
2022-11-07T20:21:23.109Z,71.97
2022-11-07T20:23:51.819Z,77.18
2022-11-07T20:26:21.695Z,79.63
2022-11-07T20:28:49.437Z,76.28
2022-11-07T20:31:25.357Z,76.10
2022-11-07T20:33:52.997Z,79.68
2022-11-07T20:36:20.292Z,72.78
2022-11-07T20:38:47.059Z,66.70
2022-11-07T20:41:14.217Z,66.15
2022-11-07T20:43:41.396Z,72.35
2022-11-07T20:46:10.730Z,64.78
2022-11-07T20:48:38.082Z,72.68
2022-11-07T20:51:16.258Z,70.85
2022-11-07T20:53:49.551Z,70.90
2022-11-07T20:56:17.911Z,74.70
2022-11-07T20:58:44.983Z,73.78
2022-11-07T21:01:15.850Z,66.55
2022-11-07T21:03:44.583Z,64.72
2022-11-07T21:06:14.403Z,63.63
2022-11-07T21:08:43.528Z,70.00
2022-11-07T21:11:11.437Z,67.18
2022-11-07T21:13:38.728Z,68.47
2022-11-07T21:16:06.749Z,68.10
2022-11-07T21:18:33.536Z,75.65
2022-11-07T21:21:16.475Z,68.38
2022-11-07T21:23:43.632Z,77.30
2022-11-07T21:26:19.477Z,69.97
2022-11-07T21:28:46.719Z,70.20
2022-11-07T21:31:18.241Z,70.38
2022-11-07T21:33:46.332Z,75.03
2022-11-07T21:36:20.018Z,80.22
2022-11-07T21:38:47.191Z,72.03
2022-11-07T21:41:17.577Z,69.53
2022-11-07T21:43:44.326Z,68.15
2022-11-07T21:46:14.093Z,71.82
2022-11-07T21:48:41.488Z,64.75
2022-11-07T21:51:29.855Z,73.00
2022-11-07T21:53:58.058Z,67.13
2022-11-07T21:56:26.740Z,78.13
2022-11-07T21:58:56.229Z,77.70
2022-11-07T22:01:24.349Z,71.72
2022-11-07T22:04:09.829Z,71.97
2022-11-07T22:06:40.150Z,69.57
2022-11-07T22:09:08.772Z,70.70
2022-11-07T22:11:35.628Z,77.15
2022-11-07T22:14:02.643Z,70.63
2022-11-07T22:16:29.513Z,69.63
2022-11-07T22:18:56.180Z,73.22
2022-11-07T22:21:23.645Z,71.20
2022-11-07T22:23:50.874Z,62.80
2022-11-07T22:26:21.121Z,65.45
2022-11-07T22:28:48.796Z,69.63
2022-11-07T22:31:26.712Z,68.50
2022-11-07T22:33:54.449Z,68.25
2022-11-07T22:36:21.527Z,64.93
2022-11-07T22:38:48.377Z,63.42
2022-11-07T22:41:18.243Z,66.75
2022-11-07T22:43:45.013Z,72.82
2022-11-07T22:46:14.050Z,66.45
2022-11-07T22:48:41.279Z,68.03
2022-11-07T22:51:14.282Z,67.93
2022-11-07T22:53:41.119Z,63.58
2022-11-07T22:56:16.908Z,69.50
2022-11-07T22:58:44.448Z,68.72
2022-11-07T23:01:20.328Z,72.75
2022-11-07T23:03:47.984Z,69.15
2022-11-07T23:06:15.900Z,71.85
2022-11-07T23:08:42.720Z,65.95
2022-11-07T23:14:03.768Z,77.70
2022-11-07T23:16:32.976Z,73.93
2022-11-07T23:19:02.298Z,72.25
2022-11-07T23:21:29.632Z,70.53
2022-11-07T23:23:57.964Z,64.25
2022-11-07T23:26:26.122Z,67.55
2022-11-07T23:28:53.293Z,65.40
2022-11-07T23:31:20.217Z,70.75
2022-11-07T23:33:46.926Z,60.10
2022-11-07T23:36:15.591Z,73.22
2022-11-07T23:38:43.464Z,73.45
2022-11-07T23:41:13.065Z,73.28
2022-11-07T23:43:40.729Z,69.00
2022-11-07T23:46:26.796Z,69.00
2022-11-07T23:49:14.786Z,68.78
2022-11-07T23:51:42.286Z,71.13
2022-11-07T23:54:27.439Z,73.35
2022-11-07T23:56:54.364Z,64.18
2022-11-07T23:59:39.471Z,66.40
